Weather at Dallas Fort Worth International Airport

Public forecast

Using degrees Fahrenheit for public forecast. Weather courtesy of forecast.io.

Current aviation weather report (METAR) for Dallas Fort Worth International Airport

Retrieved 2021/10/22 04:53 UTC (48 minutes ago):

KDFW 220453Z 03006KT 10SM FEW250 18/08 A3013 RMK AO2 SLP195 T01830083

Aviation forecast (TAF) for Dallas Fort Worth International Airport

Retrieved 2021-10-22 00:22 UTC (5 hours ago):

TAF KDFW 212320Z 2200/2306 04007KT P6SM FEW050 FM221100 08003KT P6SM FEW250 FM221800 14006KT P6SM SCT045